Time;durP1;ratioP1;P1;durP2;ratioP2;P2;SDS_P1;SDS_P2;PMS_P1;PMS_P2;Temp;Humidity;BMP_temperature;BMP_pressure;BME280_temperature;BME280_humidity;BME280_pressure;Samples;Min_cycle;Max_cycle;Signal;HPM_P1;HPM_P2
2023/05/11 00:00:43;;;;;;;7.83;3.70;;;;;;;;;;5030327;28;20218;-69
2023/05/11 00:03:11;;;;;;;7.87;3.53;;;;;;;;;;5029573;28;20274;-69
2023/05/11 00:05:38;;;;;;;9.27;3.30;;;;;;;;;;5030055;28;20286;-69
2023/05/11 00:08:05;;;;;;;19.13;7.57;;;;;;;;;;5029512;28;20192;-69
2023/05/11 00:10:33;;;;;;;8.30;4.53;;;;;;;;;;5024091;28;20551;-69
2023/05/11 00:12:59;;;;;;;7.07;3.70;;;;;;;;;;5010151;28;20188;-69
2023/05/11 00:15:27;;;;;;;10.50;3.50;;;;;;;;;;5013596;28;20662;-69
2023/05/11 00:17:53;;;;;;;5.80;3.43;;;;;;;;;;5029323;28;20609;-69
2023/05/11 00:20:22;;;;;;;9.40;4.07;;;;;;;;;;5029571;28;20291;-69
2023/05/11 00:22:48;;;;;;;8.80;3.30;;;;;;;;;;5029333;28;20227;-69
2023/05/11 00:25:15;;;;;;;7.93;3.40;;;;;;;;;;5029443;28;20187;-69
2023/05/11 00:27:44;;;;;;;7.10;3.80;;;;;;;;;;5017026;28;20734;-69
2023/05/11 00:30:13;;;;;;;8.23;3.80;;;;;;;;;;5009435;28;20292;-69
2023/05/11 00:32:41;;;;;;;5.87;3.43;;;;;;;;;;5024990;28;20235;-69
2023/05/11 00:35:09;;;;;;;9.50;4.10;;;;;;;;;;5009510;28;20575;-69
2023/05/11 00:37:37;;;;;;;8.60;4.57;;;;;;;;;;4992374;28;20260;-69
2023/05/11 00:40:03;;;;;;;8.23;4.10;;;;;;;;;;4992367;28;20216;-68
2023/05/11 00:42:30;;;;;;;12.73;4.70;;;;;;;;;;4992723;28;20184;-68
2023/05/11 00:45:01;;;;;;;8.97;4.70;;;;;;;;;;5008959;28;20219;-68
2023/05/11 00:47:27;;;;;;;10.77;4.30;;;;;;;;;;4992220;28;20220;-68
2023/05/11 00:49:54;;;;;;;8.53;4.60;;;;;;;;;;5009596;28;20177;-68
2023/05/11 00:52:21;;;;;;;8.30;4.73;;;;;;;;;;4991890;28;20243;-69
2023/05/11 00:54:47;;;;;;;10.47;4.53;;;;;;;;;;4992225;28;20246;-68
2023/05/11 00:57:15;;;;;;;8.43;4.77;;;;;;;;;;4975971;28;20211;-68
2023/05/11 00:59:42;;;;;;;7.87;4.40;;;;;;;;;;5009398;28;20195;-68
2023/05/11 01:02:09;;;;;;;10.10;4.40;;;;;;;;;;4975693;28;20240;-68
2023/05/11 01:04:36;;;;;;;9.63;4.30;;;;;;;;;;4992112;28;20198;-68
2023/05/11 01:07:06;;;;;;;6.33;4.17;;;;;;;;;;4992120;28;20192;-69
2023/05/11 01:09:37;;;;;;;6.90;4.07;;;;;;;;;;4976225;28;20222;-68
2023/05/11 01:12:27;;;;;;;7.37;3.90;;;;;;;;;;4991767;28;20196;-69
2023/05/11 01:14:57;;;;;;;7.50;4.17;;;;;;;;;;4972931;28;20215;-68
2023/05/11 01:17:33;;;;;;;8.37;4.37;;;;;;;;;;4994690;28;20202;-69
2023/05/11 01:20:06;;;;;;;6.60;4.20;;;;;;;;;;4990692;28;20207;-68
2023/05/11 01:22:37;;;;;;;7.23;3.83;;;;;;;;;;4991538;28;20234;-68
2023/05/11 01:25:18;;;;;;;6.47;3.40;;;;;;;;;;5008159;28;20610;-68
2023/05/11 01:27:46;;;;;;;8.17;3.77;;;;;;;;;;5008389;28;20691;-68
2023/05/11 01:30:25;;;;;;;8.27;3.60;;;;;;;;;;5009091;28;20682;-68
2023/05/11 01:32:53;;;;;;;7.97;3.83;;;;;;;;;;4991678;28;20200;-68
2023/05/11 01:35:21;;;;;;;6.83;3.30;;;;;;;;;;5009141;28;20188;-68
2023/05/11 01:37:52;;;;;;;9.83;3.63;;;;;;;;;;4990658;28;20189;-69
2023/05/11 01:40:23;;;;;;;7.03;3.23;;;;;;;;;;4991790;28;20204;-69
2023/05/11 01:42:58;;;;;;;7.07;3.57;;;;;;;;;;5012152;28;20211;-68
2023/05/11 02:17:21;;;;;;;6.87;3.20;;;;;;;;;;5031509;28;20600;-68
2023/05/11 02:19:49;;;;;;;9.30;3.80;;;;;;;;;;4997890;28;20450;-68
2023/05/11 02:22:16;;;;;;;6.77;3.27;;;;;;;;;;4997588;28;20237;-68
2023/05/11 02:24:44;;;;;;;4.50;3.07;;;;;;;;;;5014830;28;20188;-68
2023/05/11 02:27:11;;;;;;;6.17;2.97;;;;;;;;;;5010270;28;20188;-68
2023/05/11 02:29:39;;;;;;;4.83;3.10;;;;;;;;;;5026753;28;20216;-68
2023/05/11 02:32:06;;;;;;;6.63;3.00;;;;;;;;;;5012174;28;20188;-68
2023/05/11 02:34:40;;;;;;;10.40;3.70;;;;;;;;;;5010471;28;21009;-68
2023/05/11 02:37:14;;;;;;;14.27;3.90;;;;;;;;;;5026724;28;20192;-68
2023/05/11 02:39:43;;;;;;;8.20;3.37;;;;;;;;;;5010672;28;21008;-68
2023/05/11 02:42:13;;;;;;;7.80;3.30;;;;;;;;;;5026958;28;20537;-69
2023/05/11 02:44:43;;;;;;;5.57;3.50;;;;;;;;;;5012907;28;20622;-68
2023/05/11 02:47:10;;;;;;;6.23;3.23;;;;;;;;;;5014049;28;20434;-68
2023/05/11 02:49:37;;;;;;;10.87;3.30;;;;;;;;;;5014103;28;20871;-68
2023/05/11 02:52:07;;;;;;;6.57;3.03;;;;;;;;;;5013472;28;20457;-68
2023/05/11 02:54:40;;;;;;;7.43;3.20;;;;;;;;;;4998615;28;20202;-68
2023/05/11 02:57:07;;;;;;;6.23;3.23;;;;;;;;;;4997383;28;20674;-68
2023/05/11 02:59:35;;;;;;;5.87;3.20;;;;;;;;;;5013499;28;20195;-68
2023/05/11 03:02:01;;;;;;;6.47;3.03;;;;;;;;;;4991063;28;20224;-68
2023/05/11 03:04:28;;;;;;;7.90;3.40;;;;;;;;;;5011674;28;20315;-68
2023/05/11 03:06:55;;;;;;;6.07;3.43;;;;;;;;;;5009995;28;20501;-68
2023/05/11 03:09:21;;;;;;;5.63;2.83;;;;;;;;;;5009986;28;20443;-68
2023/05/11 03:11:48;;;;;;;7.40;3.30;;;;;;;;;;5009742;28;20958;-68
2023/05/11 03:14:17;;;;;;;6.47;3.20;;;;;;;;;;5026203;28;20420;-68
2023/05/11 03:16:44;;;;;;;6.03;3.13;;;;;;;;;;5024954;28;20267;-68
2023/05/11 03:19:12;;;;;;;5.87;3.30;;;;;;;;;;4993240;28;20497;-68
2023/05/11 03:21:41;;;;;;;6.63;3.10;;;;;;;;;;4993647;28;20561;-68
2023/05/11 03:24:08;;;;;;;6.43;3.20;;;;;;;;;;4989866;28;20229;-68
2023/05/11 03:26:35;;;;;;;8.00;3.43;;;;;;;;;;5006413;28;20201;-68
2023/05/11 03:29:02;;;;;;;4.30;2.73;;;;;;;;;;4990228;28;20563;-68
2023/05/11 03:31:29;;;;;;;7.23;3.30;;;;;;;;;;4989962;28;20502;-68
2023/05/11 03:33:57;;;;;;;7.67;3.00;;;;;;;;;;4990176;28;20444;-68
2023/05/11 03:36:24;;;;;;;7.27;3.23;;;;;;;;;;5021720;28;20294;-68
2023/05/11 03:38:52;;;;;;;7.23;3.63;;;;;;;;;;5010766;28;20446;-68
2023/05/11 03:41:20;;;;;;;5.23;3.17;;;;;;;;;;5026011;28;20244;-68
2023/05/11 03:43:52;;;;;;;6.60;3.33;;;;;;;;;;5010940;28;20423;-68
2023/05/11 03:46:20;;;;;;;5.47;2.80;;;;;;;;;;5025650;28;20288;-68
2023/05/11 03:48:47;;;;;;;9.57;3.40;;;;;;;;;;5026024;28;20283;-68
2023/05/11 03:51:18;;;;;;;8.30;3.37;;;;;;;;;;5024335;28;20195;-68
2023/05/11 03:53:45;;;;;;;8.87;3.20;;;;;;;;;;5009305;28;20671;-68
2023/05/11 03:56:11;;;;;;;5.43;3.00;;;;;;;;;;5009280;28;20192;-68
2023/05/11 03:58:40;;;;;;;10.00;3.23;;;;;;;;;;5023651;28;20192;-68
2023/05/11 04:01:08;;;;;;;10.40;3.50;;;;;;;;;;4992842;28;20224;-68
2023/05/11 04:03:35;;;;;;;10.53;3.50;;;;;;;;;;5010366;28;20180;-68
2023/05/11 04:06:02;;;;;;;7.30;3.47;;;;;;;;;;4993005;28;20192;-68
2023/05/11 04:08:29;;;;;;;9.13;3.40;;;;;;;;;;4991943;28;20196;-69
2023/05/11 04:10:55;;;;;;;8.20;3.33;;;;;;;;;;5003427;28;20643;-67
2023/05/11 04:13:22;;;;;;;6.67;3.13;;;;;;;;;;4986264;28;20235;-66
2023/05/11 04:15:49;;;;;;;7.33;3.33;;;;;;;;;;4973101;28;20200;-67
2023/05/11 04:18:19;;;;;;;8.63;3.20;;;;;;;;;;4981932;28;20286;-66
2023/05/11 04:20:49;;;;;;;9.03;3.50;;;;;;;;;;5006548;28;20310;-68
2023/05/11 04:23:16;;;;;;;10.00;3.47;;;;;;;;;;4995362;28;20227;-68
2023/05/11 04:25:42;;;;;;;10.90;3.80;;;;;;;;;;5003581;28;20219;-66
2023/05/11 04:28:10;;;;;;;10.90;3.77;;;;;;;;;;5020146;28;20211;-64
2023/05/11 04:30:37;;;;;;;8.57;3.13;;;;;;;;;;5006174;28;20196;-65
2023/05/11 04:33:04;;;;;;;9.77;3.40;;;;;;;;;;4990196;28;20215;-65
2023/05/11 04:35:31;;;;;;;8.83;3.40;;;;;;;;;;5009931;28;20211;-65
2023/05/11 04:37:57;;;;;;;9.77;3.27;;;;;;;;;;5006896;28;20301;-65
2023/05/11 04:40:25;;;;;;;8.63;3.17;;;;;;;;;;5007427;28;20198;-65
2023/05/11 04:42:52;;;;;;;8.47;3.60;;;;;;;;;;4995132;28;20226;-66
2023/05/11 04:45:19;;;;;;;11.67;3.40;;;;;;;;;;5011031;28;20196;-67
2023/05/11 04:47:46;;;;;;;5.17;2.90;;;;;;;;;;5010290;28;20203;-65
2023/05/11 04:50:15;;;;;;;7.53;3.10;;;;;;;;;;5011428;28;20190;-65
2023/05/11 04:52:41;;;;;;;7.50;2.90;;;;;;;;;;5028277;28;20195;-64
2023/05/11 04:55:08;;;;;;;9.50;2.80;;;;;;;;;;5027593;28;20184;-65
2023/05/11 04:57:37;;;;;;;5.07;2.80;;;;;;;;;;5000067;28;20191;-66
2023/05/11 05:00:05;;;;;;;7.63;3.53;;;;;;;;;;5006960;28;20222;-65
2023/05/11 05:02:32;;;;;;;6.20;2.70;;;;;;;;;;5025919;28;20222;-66
2023/05/11 05:04:59;;;;;;;7.57;3.53;;;;;;;;;;5037961;28;20585;-65
2023/05/11 05:07:26;;;;;;;7.20;3.03;;;;;;;;;;5035704;28;20314;-64
2023/05/11 05:09:53;;;;;;;4.77;2.70;;;;;;;;;;5026452;28;20202;-65
2023/05/11 05:12:20;;;;;;;8.67;2.90;;;;;;;;;;5026517;28;20254;-65
2023/05/11 05:14:49;;;;;;;8.80;2.63;;;;;;;;;;5025572;28;20203;-65
2023/05/11 05:17:16;;;;;;;5.83;2.90;;;;;;;;;;5028319;28;20722;-64
2023/05/11 05:19:43;;;;;;;6.73;3.00;;;;;;;;;;5011843;28;20330;-64
2023/05/11 05:22:10;;;;;;;6.43;2.73;;;;;;;;;;5012216;28;20316;-64
2023/05/11 05:24:37;;;;;;;4.83;2.50;;;;;;;;;;5028366;28;20241;-64
2023/05/11 05:27:04;;;;;;;6.23;2.57;;;;;;;;;;5030141;28;20336;-65
2023/05/11 05:29:31;;;;;;;4.03;2.77;;;;;;;;;;5011450;28;20195;-65
2023/05/11 05:31:58;;;;;;;5.53;2.97;;;;;;;;;;5010520;28;20197;-67
2023/05/11 05:34:26;;;;;;;6.50;2.53;;;;;;;;;;5009253;28;20728;-67
2023/05/11 05:36:52;;;;;;;5.93;2.50;;;;;;;;;;5014248;28;20281;-69
2023/05/11 05:39:19;;;;;;;8.07;2.53;;;;;;;;;;5007478;28;20314;-69
2023/05/11 05:41:46;;;;;;;5.70;2.53;;;;;;;;;;5028880;28;20221;-68
2023/05/11 05:44:12;;;;;;;7.33;2.60;;;;;;;;;;5030436;28;20669;-68
2023/05/11 05:46:39;;;;;;;8.37;2.80;;;;;;;;;;5029705;28;20555;-68
2023/05/11 05:49:06;;;;;;;6.60;2.30;;;;;;;;;;5015121;28;20188;-68
2023/05/11 05:51:35;;;;;;;6.90;2.50;;;;;;;;;;5013246;28;20187;-67
2023/05/11 05:54:02;;;;;;;6.93;2.37;;;;;;;;;;5021654;28;20187;-67
2023/05/11 05:56:30;;;;;;;8.63;2.90;;;;;;;;;;5029746;28;20230;-68
2023/05/11 05:58:58;;;;;;;5.80;2.70;;;;;;;;;;5021327;28;20557;-67
2023/05/11 06:01:26;;;;;;;5.47;2.50;;;;;;;;;;5012128;28;20219;-67
2023/05/11 06:03:53;;;;;;;10.10;2.50;;;;;;;;;;5012325;28;20237;-67
2023/05/11 06:06:20;;;;;;;8.43;2.80;;;;;;;;;;5011014;28;20202;-67
2023/05/11 06:08:47;;;;;;;6.93;2.47;;;;;;;;;;5001918;28;20884;-66
2023/05/11 06:11:15;;;;;;;5.60;2.80;;;;;;;;;;5012504;28;20193;-66
2023/05/11 06:13:41;;;;;;;7.30;2.60;;;;;;;;;;5000034;28;20227;-66
2023/05/11 06:16:08;;;;;;;5.30;2.93;;;;;;;;;;5012065;28;20195;-66
2023/05/11 06:18:36;;;;;;;5.17;2.30;;;;;;;;;;5011934;28;20261;-66
2023/05/11 06:21:06;;;;;;;7.50;2.80;;;;;;;;;;5012044;28;20250;-66
2023/05/11 06:23:32;;;;;;;8.73;3.13;;;;;;;;;;5010133;28;20702;-66
2023/05/11 06:26:00;;;;;;;7.63;3.03;;;;;;;;;;5029379;28;20199;-66
2023/05/11 06:28:29;;;;;;;8.30;2.93;;;;;;;;;;5010081;28;20191;-66
2023/05/11 06:30:59;;;;;;;3.97;2.60;;;;;;;;;;5014018;28;20580;-67
2023/05/11 06:33:30;;;;;;;4.53;2.80;;;;;;;;;;5013916;28;20202;-67
2023/05/11 06:35:57;;;;;;;6.87;2.87;;;;;;;;;;5013551;28;20202;-67
2023/05/11 06:38:27;;;;;;;5.87;2.57;;;;;;;;;;4997782;28;20198;-66
2023/05/11 06:40:55;;;;;;;6.37;3.00;;;;;;;;;;5012998;28;20257;-67
2023/05/11 06:43:22;;;;;;;10.90;3.07;;;;;;;;;;5013691;28;20230;-67
2023/05/11 06:45:51;;;;;;;8.83;2.77;;;;;;;;;;5013934;28;20195;-67
2023/05/11 06:48:18;;;;;;;9.13;3.07;;;;;;;;;;5013356;28;20189;-67
2023/05/11 06:50:45;;;;;;;7.83;2.97;;;;;;;;;;5046838;28;20238;-67
2023/05/11 06:53:12;;;;;;;7.73;3.03;;;;;;;;;;5013268;28;20685;-68
2023/05/11 06:55:40;;;;;;;8.40;3.03;;;;;;;;;;5026119;28;20210;-68
2023/05/11 06:58:07;;;;;;;5.40;2.60;;;;;;;;;;5012135;28;20220;-68
2023/05/11 07:00:34;;;;;;;9.17;2.77;;;;;;;;;;5012068;28;20242;-68
2023/05/11 07:03:01;;;;;;;7.77;3.10;;;;;;;;;;5011614;28;20216;-67
2023/05/11 07:05:27;;;;;;;8.77;3.20;;;;;;;;;;5011196;28;20188;-68
2023/05/11 07:07:54;;;;;;;8.03;3.07;;;;;;;;;;5011390;28;20666;-68
2023/05/11 07:10:21;;;;;;;9.90;3.00;;;;;;;;;;5009904;28;20200;-67
2023/05/11 07:12:48;;;;;;;3.97;2.70;;;;;;;;;;5010552;28;20210;-67
2023/05/11 07:15:14;;;;;;;8.43;2.90;;;;;;;;;;5013146;28;20562;-67
2023/05/11 07:17:41;;;;;;;5.27;2.87;;;;;;;;;;5030890;28;20191;-67
2023/05/11 07:20:08;;;;;;;6.47;2.77;;;;;;;;;;5030640;28;20286;-68
2023/05/11 07:22:34;;;;;;;10.40;2.77;;;;;;;;;;5030514;28;20239;-68
2023/05/11 07:25:01;;;;;;;7.60;2.70;;;;;;;;;;5031092;28;20192;-68
2023/05/11 07:27:28;;;;;;;6.90;2.80;;;;;;;;;;5030542;28;20251;-68
2023/05/11 07:29:55;;;;;;;7.43;2.60;;;;;;;;;;5030763;28;20532;-68
2023/05/11 07:32:22;;;;;;;5.33;2.43;;;;;;;;;;5010612;28;20196;-68
2023/05/11 07:34:48;;;;;;;6.63;2.63;;;;;;;;;;5010793;28;20184;-68
2023/05/11 07:37:15;;;;;;;3.23;2.30;;;;;;;;;;5010879;28;20188;-68
2023/05/11 07:39:41;;;;;;;4.87;2.73;;;;;;;;;;5010274;28;20266;-68
2023/05/11 07:42:08;;;;;;;4.67;2.53;;;;;;;;;;5010745;28;20216;-68
2023/05/11 07:44:36;;;;;;;6.20;2.90;;;;;;;;;;5010640;28;20200;-68
2023/05/11 07:47:02;;;;;;;11.70;2.90;;;;;;;;;;5018405;28;20843;-68
2023/05/11 07:49:29;;;;;;;7.67;2.80;;;;;;;;;;5030193;28;20211;-68
2023/05/11 07:52:09;;;;;;;8.30;2.53;;;;;;;;;;5030045;28;20191;-68
2023/05/11 07:54:35;;;;;;;5.23;2.60;;;;;;;;;;5030576;28;20193;-68
2023/05/11 07:57:02;;;;;;;5.83;2.50;;;;;;;;;;5030297;28;20183;-68
2023/05/11 07:59:29;;;;;;;6.97;2.50;;;;;;;;;;5029269;28;20290;-68
2023/05/11 08:01:56;;;;;;;9.13;2.83;;;;;;;;;;5028027;28;20298;-68
2023/05/11 08:04:25;;;;;;;7.27;2.63;;;;;;;;;;5010236;28;21074;-68
2023/05/11 08:06:52;;;;;;;8.03;2.73;;;;;;;;;;5010704;28;20198;-68
2023/05/11 08:09:18;;;;;;;9.47;2.63;;;;;;;;;;5010247;28;20192;-67
2023/05/11 08:11:45;;;;;;;6.80;2.60;;;;;;;;;;5010049;28;20282;-67
2023/05/11 08:14:12;;;;;;;4.13;2.57;;;;;;;;;;5010162;28;20216;-68
2023/05/11 08:16:39;;;;;;;5.53;2.53;;;;;;;;;;5023259;28;20214;-67
2023/05/11 08:19:06;;;;;;;8.17;2.60;;;;;;;;;;5019102;28;20195;-67
2023/05/11 08:21:34;;;;;;;3.67;2.23;;;;;;;;;;5010329;28;20192;-68
2023/05/11 08:24:02;;;;;;;4.87;2.30;;;;;;;;;;5009826;28;20231;-67
2023/05/11 08:26:29;;;;;;;5.70;2.20;;;;;;;;;;5009769;28;20554;-68
2023/05/11 08:28:56;;;;;;;9.97;2.33;;;;;;;;;;5009874;28;20280;-67
2023/05/11 08:31:23;;;;;;;3.67;2.10;;;;;;;;;;5009792;28;20215;-67
2023/05/11 08:33:50;;;;;;;6.23;2.17;;;;;;;;;;5010034;28;20279;-67
2023/05/11 08:36:17;;;;;;;4.27;1.90;;;;;;;;;;5015332;28;20606;-67
2023/05/11 08:38:44;;;;;;;7.20;2.10;;;;;;;;;;5029141;28;20613;-67
2023/05/11 08:41:11;;;;;;;5.90;1.97;;;;;;;;;;5029202;28;20191;-67
2023/05/11 08:43:38;;;;;;;6.43;1.83;;;;;;;;;;5029418;28;20604;-67
2023/05/11 08:46:07;;;;;;;7.97;2.03;;;;;;;;;;5029415;28;20194;-67
2023/05/11 08:48:33;;;;;;;5.63;2.00;;;;;;;;;;5029801;28;20192;-67
2023/05/11 08:51:02;;;;;;;6.63;2.07;;;;;;;;;;5011894;28;20274;-68
2023/05/11 08:53:29;;;;;;;4.03;1.93;;;;;;;;;;4999722;28;20525;-67
2023/05/11 08:56:00;;;;;;;3.87;1.73;;;;;;;;;;5009590;28;20191;-66
2023/05/11 08:58:27;;;;;;;4.07;2.10;;;;;;;;;;5009374;28;20919;-67
2023/05/11 09:00:54;;;;;;;5.30;2.10;;;;;;;;;;4992568;28;20178;-67
2023/05/11 09:03:21;;;;;;;4.73;2.23;;;;;;;;;;5009526;28;20208;-67
2023/05/11 09:05:48;;;;;;;6.40;1.90;;;;;;;;;;4991895;28;20280;-67
2023/05/11 09:08:16;;;;;;;4.07;1.67;;;;;;;;;;5014431;28;20192;-67
2023/05/11 09:10:43;;;;;;;4.17;2.03;;;;;;;;;;5029088;28;20269;-67
2023/05/11 09:13:10;;;;;;;3.60;2.00;;;;;;;;;;5029255;28;20186;-67
2023/05/11 09:15:36;;;;;;;3.90;1.90;;;;;;;;;;5029415;28;20175;-67
2023/05/11 09:18:04;;;;;;;6.13;2.10;;;;;;;;;;5029061;28;20753;-67
2023/05/11 09:20:31;;;;;;;3.87;1.83;;;;;;;;;;5011602;28;20622;-67
2023/05/11 09:22:58;;;;;;;6.33;2.10;;;;;;;;;;5028892;28;20322;-67
2023/05/11 09:25:25;;;;;;;3.10;1.63;;;;;;;;;;5023782;28;20299;-67
2023/05/11 09:27:52;;;;;;;3.10;1.70;;;;;;;;;;4992277;28;20267;-67
2023/05/11 09:30:18;;;;;;;2.93;1.50;;;;;;;;;;5009724;28;20222;-67
2023/05/11 09:32:48;;;;;;;3.33;1.83;;;;;;;;;;5009191;28;20287;-67
2023/05/11 09:35:20;;;;;;;4.33;1.80;;;;;;;;;;5009230;28;20184;-67
2023/05/11 09:37:57;;;;;;;3.53;1.57;;;;;;;;;;5023683;28;20188;-67
2023/05/11 09:40:27;;;;;;;3.00;1.80;;;;;;;;;;5009007;28;20278;-67
2023/05/11 09:42:58;;;;;;;5.87;1.83;;;;;;;;;;5024936;28;20228;-67
2023/05/11 09:45:41;;;;;;;3.23;1.77;;;;;;;;;;5028554;28;20195;-67
2023/05/11 09:48:28;;;;;;;3.23;1.77;;;;;;;;;;5028870;28;20190;-67
2023/05/11 09:50:58;;;;;;;8.33;2.17;;;;;;;;;;5028817;28;20570;-66
2023/05/11 09:53:34;;;;;;;8.43;1.80;;;;;;;;;;5011228;28;20535;-67
2023/05/11 09:56:00;;;;;;;3.27;1.30;;;;;;;;;;5028605;28;20202;-67
2023/05/11 09:58:34;;;;;;;2.93;2.03;;;;;;;;;;5005203;28;20994;-67
2023/05/11 10:01:01;;;;;;;4.23;1.90;;;;;;;;;;4991888;28;20222;-67
2023/05/11 10:03:28;;;;;;;3.50;1.60;;;;;;;;;;5011724;28;20261;-67
2023/05/11 10:05:56;;;;;;;2.43;1.40;;;;;;;;;;5012609;28;20195;-67
2023/05/11 10:08:26;;;;;;;4.50;1.60;;;;;;;;;;5027446;28;20192;-68
2023/05/11 10:10:53;;;;;;;3.60;1.53;;;;;;;;;;5012676;28;20210;-67
2023/05/11 10:13:19;;;;;;;2.40;1.50;;;;;;;;;;5027614;28;20537;-67
2023/05/11 10:15:47;;;;;;;3.33;1.60;;;;;;;;;;5025239;28;20271;-67
2023/05/11 10:18:15;;;;;;;3.93;1.70;;;;;;;;;;5014683;28;20175;-67
2023/05/11 10:20:45;;;;;;;4.00;1.80;;;;;;;;;;5031990;28;20566;-67
2023/05/11 10:23:13;;;;;;;4.37;1.80;;;;;;;;;;5014019;28;20255;-67
2023/05/11 10:25:40;;;;;;;3.17;1.80;;;;;;;;;;5014372;28;20270;-67
2023/05/11 10:28:07;;;;;;;4.30;1.90;;;;;;;;;;5031971;28;20180;-67
2023/05/11 10:30:34;;;;;;;6.07;1.87;;;;;;;;;;5014542;28;20195;-67
2023/05/11 10:33:00;;;;;;;6.53;1.83;;;;;;;;;;5010076;28;20184;-68
2023/05/11 10:35:27;;;;;;;2.17;1.70;;;;;;;;;;5011679;28;20185;-68
2023/05/11 10:37:54;;;;;;;4.20;1.70;;;;;;;;;;5011730;28;20192;-70
2023/05/11 10:40:20;;;;;;;3.87;1.70;;;;;;;;;;5010916;28;20196;-68
2023/05/11 10:43:06;;;;;;;6.20;1.70;;;;;;;;;;5010687;28;20677;-68
2023/05/11 10:45:35;;;;;;;4.27;1.60;;;;;;;;;;5022387;28;20191;-67
2023/05/11 10:48:17;;;;;;;4.17;1.70;;;;;;;;;;5023458;28;20219;-67
2023/05/11 10:51:04;;;;;;;6.07;1.87;;;;;;;;;;5014951;28;20249;-67
2023/05/11 10:53:36;;;;;;;3.50;1.77;;;;;;;;;;5032594;28;20204;-67
2023/05/11 10:56:16;;;;;;;5.27;1.80;;;;;;;;;;5033042;28;20200;-67
2023/05/11 10:58:58;;;;;;;3.27;1.70;;;;;;;;;;5009028;28;20261;-68
2023/05/11 11:01:41;;;;;;;3.63;2.00;;;;;;;;;;5024927;28;20222;-66
2023/05/11 11:04:08;;;;;;;3.63;1.80;;;;;;;;;;5035407;28;20212;-67
2023/05/11 11:06:36;;;;;;;3.03;1.80;;;;;;;;;;5011446;28;20284;-68
2023/05/11 11:09:04;;;;;;;4.60;1.80;;;;;;;;;;5029159;28;20193;-67
2023/05/11 11:11:31;;;;;;;4.17;1.70;;;;;;;;;;5011252;28;20335;-68
2023/05/11 11:14:01;;;;;;;4.70;1.60;;;;;;;;;;5027204;28;20200;-68
2023/05/11 11:16:28;;;;;;;3.07;1.80;;;;;;;;;;5028188;28;20193;-67
2023/05/11 11:19:14;;;;;;;3.70;1.67;;;;;;;;;;5029284;28;20196;-69
2023/05/11 11:21:41;;;;;;;3.70;1.83;;;;;;;;;;5013641;28;20245;-67
2023/05/11 11:24:08;;;;;;;3.20;1.90;;;;;;;;;;5014574;28;20249;-67
2023/05/11 11:26:46;;;;;;;3.83;1.87;;;;;;;;;;4995363;28;20197;-67
2023/05/11 11:29:16;;;;;;;4.00;1.90;;;;;;;;;;5028826;28;20211;-68
2023/05/11 11:31:43;;;;;;;5.23;1.70;;;;;;;;;;5028791;28;20294;-67
2023/05/11 11:34:28;;;;;;;4.17;2.10;;;;;;;;;;5026954;28;20242;-67
2023/05/11 11:37:05;;;;;;;4.30;2.00;;;;;;;;;;5011033;28;20258;-67
2023/05/11 11:39:41;;;;;;;6.00;2.00;;;;;;;;;;5010145;28;20187;-67
2023/05/11 11:42:10;;;;;;;8.60;1.93;;;;;;;;;;5025221;28;20175;-68
2023/05/11 11:44:37;;;;;;;3.73;1.70;;;;;;;;;;5025878;28;20679;-68
2023/05/11 11:47:22;;;;;;;6.60;1.90;;;;;;;;;;5041219;28;20191;-69
2023/05/11 11:49:55;;;;;;;7.40;2.37;;;;;;;;;;5009422;28;20214;-77
2023/05/11 11:52:30;;;;;;;4.87;1.50;;;;;;;;;;5011336;28;20192;-75
2023/05/11 11:54:58;;;;;;;3.70;1.60;;;;;;;;;;5025910;28;20188;-76
2023/05/11 11:57:42;;;;;;;5.27;1.80;;;;;;;;;;5009559;28;20187;-73
2023/05/11 12:00:11;;;;;;;4.30;1.60;;;;;;;;;;5008723;28;20215;-70
2023/05/11 12:02:41;;;;;;;5.00;1.60;;;;;;;;;;5009087;28;20301;-70
2023/05/11 12:05:13;;;;;;;3.10;1.80;;;;;;;;;;5027100;28;20258;-75
2023/05/11 12:07:41;;;;;;;5.43;1.73;;;;;;;;;;5009680;28;20187;-71
2023/05/11 12:10:10;;;;;;;5.63;1.70;;;;;;;;;;5036408;28;20199;-70
2023/05/11 12:12:37;;;;;;;4.00;1.67;;;;;;;;;;5026977;28;20716;-75
2023/05/11 12:15:05;;;;;;;2.90;1.77;;;;;;;;;;5026291;28;20221;-74
2023/05/11 12:17:36;;;;;;;4.13;1.67;;;;;;;;;;5020175;28;20427;-70
2023/05/11 12:20:12;;;;;;;5.47;1.70;;;;;;;;;;4996594;28;20925;-75
2023/05/11 12:22:48;;;;;;;4.63;1.67;;;;;;;;;;5012190;28;20231;-69
2023/05/11 12:25:16;;;;;;;6.93;1.97;;;;;;;;;;4990853;28;20191;-68
2023/05/11 12:27:54;;;;;;;4.60;2.00;;;;;;;;;;5026363;28;20253;-69
2023/05/11 12:30:28;;;;;;;4.80;1.90;;;;;;;;;;4993034;28;20237;-69
2023/05/11 12:32:56;;;;;;;4.30;1.70;;;;;;;;;;5027114;28;20187;-70
2023/05/11 12:35:30;;;;;;;3.97;1.60;;;;;;;;;;5025920;28;20192;-68
2023/05/11 12:38:00;;;;;;;2.93;1.57;;;;;;;;;;5008813;28;20203;-71
2023/05/11 12:40:27;;;;;;;5.67;1.90;;;;;;;;;;5026275;28;20916;-71
2023/05/11 12:42:56;;;;;;;6.13;1.87;;;;;;;;;;5001217;28;20202;-71
2023/05/11 12:45:24;;;;;;;6.20;1.80;;;;;;;;;;5022385;28;20938;-72
2023/05/11 12:47:54;;;;;;;5.33;1.60;;;;;;;;;;5008440;28;20253;-71
2023/05/11 12:50:22;;;;;;;3.83;1.87;;;;;;;;;;5015172;28;20200;-70
2023/05/11 12:52:49;;;;;;;3.07;1.67;;;;;;;;;;5008811;28;20573;-72
2023/05/11 12:55:28;;;;;;;6.13;1.60;;;;;;;;;;5007791;28;20203;-67
2023/05/11 12:58:14;;;;;;;2.20;1.60;;;;;;;;;;5026472;28;20650;-66
2023/05/11 13:01:00;;;;;;;3.23;1.80;;;;;;;;;;5022525;28;20250;-67
2023/05/11 13:03:29;;;;;;;4.40;1.80;;;;;;;;;;5008890;28;20298;-67
2023/05/11 13:06:11;;;;;;;3.20;1.50;;;;;;;;;;5026114;28;20223;-66
2023/05/11 13:08:43;;;;;;;4.80;1.70;;;;;;;;;;5009973;28;20180;-67
2023/05/11 13:11:16;;;;;;;4.30;1.90;;;;;;;;;;5026871;28;20674;-67
2023/05/11 13:13:43;;;;;;;2.43;1.57;;;;;;;;;;5027115;28;20195;-67
2023/05/11 13:16:10;;;;;;;3.13;1.50;;;;;;;;;;5027191;28;20199;-67
2023/05/11 13:18:36;;;;;;;3.73;1.53;;;;;;;;;;5003981;28;20333;-67
2023/05/11 13:21:04;;;;;;;4.40;1.57;;;;;;;;;;5009439;28;20199;-67
2023/05/11 13:23:31;;;;;;;3.53;1.80;;;;;;;;;;5008826;28;20583;-67
2023/05/11 13:25:57;;;;;;;3.40;1.67;;;;;;;;;;4992084;28;20189;-67
2023/05/11 13:28:25;;;;;;;5.67;1.50;;;;;;;;;;5007674;28;20199;-66
2023/05/11 13:30:59;;;;;;;5.37;1.53;;;;;;;;;;5025902;28;20183;-67
2023/05/11 13:33:28;;;;;;;5.03;1.40;;;;;;;;;;5018988;28;20181;-68
2023/05/11 13:35:55;;;;;;;4.00;1.60;;;;;;;;;;5020164;28;20192;-68
2023/05/11 13:38:25;;;;;;;2.63;1.40;;;;;;;;;;5029754;28;20198;-66
2023/05/11 13:40:53;;;;;;;4.07;1.80;;;;;;;;;;5013358;28;20194;-66
2023/05/11 13:43:20;;;;;;;4.07;1.83;;;;;;;;;;5030391;28;20199;-66
2023/05/11 13:45:47;;;;;;;3.33;1.30;;;;;;;;;;5030112;28;20895;-65
2023/05/11 13:48:13;;;;;;;2.63;1.83;;;;;;;;;;5029408;28;20269;-66
2023/05/11 13:50:41;;;;;;;6.97;1.80;;;;;;;;;;5012992;28;20207;-66
2023/05/11 13:53:08;;;;;;;6.70;1.73;;;;;;;;;;5030542;28;20799;-67
2023/05/11 13:55:39;;;;;;;3.30;1.80;;;;;;;;;;5029996;28;20246;-68
2023/05/11 13:58:07;;;;;;;3.90;1.70;;;;;;;;;;5027544;28;20183;-68
2023/05/11 14:00:33;;;;;;;2.47;1.57;;;;;;;;;;5031397;28;20230;-67
2023/05/11 14:03:02;;;;;;;5.47;1.57;;;;;;;;;;5014566;28;20193;-66
2023/05/11 14:05:30;;;;;;;8.10;1.60;;;;;;;;;;5026559;28;20241;-66
2023/05/11 14:07:56;;;;;;;4.90;1.70;;;;;;;;;;5023472;28;20195;-65
2023/05/11 14:10:24;;;;;;;3.73;1.50;;;;;;;;;;5026978;28;20211;-65
2023/05/11 14:12:51;;;;;;;7.37;1.80;;;;;;;;;;5028843;28;20192;-66
2023/05/11 14:15:18;;;;;;;3.17;1.60;;;;;;;;;;5027522;28;20777;-65
2023/05/11 14:17:45;;;;;;;4.43;1.70;;;;;;;;;;5009061;28;20191;-66
2023/05/11 14:20:12;;;;;;;2.43;1.57;;;;;;;;;;5028276;28;20198;-66
2023/05/11 14:22:39;;;;;;;4.80;1.60;;;;;;;;;;5026785;28;20254;-67
2023/05/11 14:25:07;;;;;;;5.33;1.50;;;;;;;;;;5027183;28;20218;-68
2023/05/11 14:27:35;;;;;;;3.70;1.57;;;;;;;;;;5027850;28;20199;-68
2023/05/11 14:30:01;;;;;;;4.50;1.80;;;;;;;;;;5009701;28;20670;-69
2023/05/11 14:32:28;;;;;;;4.50;1.43;;;;;;;;;;5028007;28;20183;-69
2023/05/11 14:34:55;;;;;;;3.37;1.43;;;;;;;;;;5010383;28;20195;-70
2023/05/11 14:37:22;;;;;;;2.60;1.47;;;;;;;;;;5027013;28;20286;-72
2023/05/11 14:39:51;;;;;;;5.07;1.70;;;;;;;;;;5011637;28;20950;-72
2023/05/11 14:42:18;;;;;;;5.27;1.80;;;;;;;;;;5028291;28;20249;-72
2023/05/11 14:44:45;;;;;;;5.57;1.70;;;;;;;;;;5026146;28;20234;-69
2023/05/11 14:47:12;;;;;;;4.47;1.73;;;;;;;;;;5009805;28;20223;-69
2023/05/11 14:49:39;;;;;;;4.57;1.87;;;;;;;;;;5028244;28;20241;-69
2023/05/11 14:52:05;;;;;;;3.17;1.43;;;;;;;;;;5010769;28;20191;-69
2023/05/11 14:54:33;;;;;;;3.87;1.30;;;;;;;;;;5009546;28;20183;-69
2023/05/11 14:57:00;;;;;;;4.03;2.03;;;;;;;;;;5028538;28;20205;-69
2023/05/11 14:59:26;;;;;;;3.63;1.70;;;;;;;;;;5009969;28;20183;-69
2023/05/11 15:01:53;;;;;;;3.43;1.60;;;;;;;;;;5027292;28;20199;-69
2023/05/11 15:04:20;;;;;;;6.73;1.60;;;;;;;;;;5027087;28;20215;-69
2023/05/11 15:06:47;;;;;;;6.50;1.53;;;;;;;;;;5009943;28;20207;-69
2023/05/11 15:09:14;;;;;;;5.63;1.80;;;;;;;;;;5027274;28;20195;-69
2023/05/11 15:11:41;;;;;;;7.63;2.00;;;;;;;;;;4996948;28;20220;-69
2023/05/11 15:14:08;;;;;;;3.87;1.60;;;;;;;;;;5024082;28;20199;-69
2023/05/11 15:16:35;;;;;;;4.10;1.83;;;;;;;;;;5027131;28;20193;-69
2023/05/11 15:19:03;;;;;;;2.23;1.60;;;;;;;;;;5027472;28;20936;-70
2023/05/11 15:21:31;;;;;;;5.03;1.43;;;;;;;;;;5026179;28;20191;-71
2023/05/11 15:23:58;;;;;;;4.50;1.60;;;;;;;;;;5008652;28;20231;-71